Acadiana Regional Airport
KARA : now visible

Airfield :











YOU CAN JOIN US ON...

 
LOGIN :

Register | Disclaimer

   EN    FR    IT 

 









Legend :    VFR   Marginal VFR   IFR   Intensive IFR   Very Intensive IFR
Visi :
Ceiling :
>= 8 km
>= 3000ft
5 to 8 km
1000 to 3000 ft
1500m to 5 km
500 to 1000 ft
800 to 1500m
200 to 500 ft
< 800m
< 200 ft
Symbols :   Thunderstorms  Fog  Heavy snow  Heavy precipitations  Wind > 20 kt







- Airport Elevation : 24 ft


KARA - Acadiana Regional

CURRENT METAR :
  • 252253Z 30012G19KT 10SM FEW041 24/18 A2979 RMK AO2 SLP085 T02390178

EXPIRED METARs :
  • 252153Z 29014KT 10SM FEW039 27/18 A2976 RMK AO2 SLP077 T02670183
  • 252053Z 29011KT 10SM FEW036 FEW049 27/18 A2976 RMK AO2 SLP078 T02670183 58002

TAF KARA
Valid from the 26 at 00:00 until the 27 at 00:00 UTC


252335Z 2600/2624 30011G20KT P6SM FEW025 SCT040
FM260100 31007KT P6SM SKC
FM261400 36012KT P6SM SCT035
KZHU FIR / North America



MET'MAP, your aeronautical weather chart ! - Copyright ORBIFLY December 2007 - Disclaimer

ORBIFLY MET'MAP TEAM :

Programming & Development : Alexandra Zaïnal
Concept & Development : Baudouin d'Aumeries
Co-Development & Prog : Marc-Olivier Méhu
Technical & hardware support : Manuel Goepfert

Contact : metmap@orbifly.com




SOURCES & CREDITS :

   NOAA       Earth
Advisory